Time;durP1;ratioP1;P1;durP2;ratioP2;P2;SDS_P1;SDS_P2;PMS_P1;PMS_P2;Temp;Humidity;BMP_temperature;BMP_pressure;BME280_temperature;BME280_humidity;BME280_pressure;Samples;Min_cycle;Max_cycle;Signal;HPM_P1;HPM_P2
2022/10/18 00:01:51;;;;;;;;;;;;;;;;;;5017075;28;20028;-78
2022/10/18 00:04:18;;;;;;;;;;;;;;;;;;5035524;28;19925;-78
2022/10/18 00:06:44;;;;;;;;;;;;;;;;;;5036314;28;19975;-78
2022/10/18 00:09:11;;;;;;;;;;;;;;;;;;5035288;28;20016;-78
2022/10/18 00:11:37;;;;;;;;;;;;;;;;;;5021880;28;19960;-78
2022/10/18 00:14:05;;;;;;;;;;;;;;;;;;5016396;28;19948;-78
2022/10/18 00:16:32;;;;;;;;;;;;;;;;;;5016509;28;19933;-78
2022/10/18 00:18:58;;;;;;;;;;;;;;;;;;5015839;28;20020;-78
2022/10/18 00:21:25;;;;;;;;;;;;;;;;;;5016201;28;19969;-78
2022/10/18 00:23:52;;;;;;;;;;;;;;;;;;5017589;28;19948;-78
2022/10/18 00:26:19;;;;;;;;;;;;;;;;;;5016741;28;19975;-78
2022/10/18 00:28:46;;;;;;;;;;;;;;;;;;5016893;28;20047;-78
2022/10/18 00:31:16;;;;;;;;;;;;;;;;;;5016256;28;20580;-76
2022/10/18 00:33:43;;;;;;;;;;;;;;;;;;5014161;28;19969;-75
2022/10/18 00:36:09;;;;;;;;;;;;;;;;;;5015454;28;20364;-78
2022/10/18 00:38:36;;;;;;;;;;;;;;;;;;5014659;28;19925;-76
2022/10/18 00:41:03;;;;;;;;;;;;;;;;;;5013629;28;20307;-77
2022/10/18 00:43:29;;;;;;;;;;;;;;;;;;5014269;28;19984;-77
2022/10/18 00:45:55;;;;;;;;;;;;;;;;;;5014237;28;19925;-77
2022/10/18 00:48:23;;;;;;;;;;;;;;;;;;5013861;28;19968;-77
2022/10/18 00:50:50;;;;;;;;;;;;;;;;;;5013502;28;20012;-77
2022/10/18 00:53:18;;;;;;;;;;;;;;;;;;5014268;28;19926;-77
2022/10/18 00:55:45;;;;;;;;;;;;;;;;;;5013697;28;19976;-77
2022/10/18 00:58:13;;;;;;;;;;;;;;;;;;5013392;28;20004;-77
2022/10/18 01:00:40;;;;;;;;;;;;;;;;;;5012726;28;19985;-77
2022/10/18 01:03:07;;;;;;;;;;;;;;;;;;5021683;28;20392;-77
2022/10/18 01:05:36;;;;;;;;;;;;;;;;;;5032290;28;20020;-77
2022/10/18 01:08:08;;;;;;;;;;;;;;;;;;5032058;28;19979;-77
2022/10/18 01:10:37;;;;;;;;;;;;;;;;;;5031801;28;20023;-77
2022/10/18 01:13:10;;;;;;;;;;;;;;;;;;5032197;28;19931;-77
2022/10/18 01:15:40;;;;;;;;;;;;;;;;;;5032315;28;19964;-77
2022/10/18 01:18:09;;;;;;;;;;;;;;;;;;5032058;28;20008;-77
2022/10/18 01:20:43;;;;;;;;;;;;;;;;;;5031908;28;19925;-77
2022/10/18 01:23:15;;;;;;;;;;;;;;;;;;5032754;28;20008;-77
2022/10/18 01:25:47;;;;;;;;;;;;;;;;;;5032646;28;20341;-77
2022/10/18 01:28:20;;;;;;;;;;;;;;;;;;5035485;28;19968;-77
2022/10/18 01:30:51;;;;;;;;;;;;;;;;;;5032350;28;20015;-77
2022/10/18 01:33:22;;;;;;;;;;;;;;;;;;5032532;28;19925;-77
2022/10/18 01:35:51;;;;;;;;;;;;;;;;;;5031900;28;20274;-77
2022/10/18 01:38:19;;;;;;;;;;;;;;;;;;5035503;28;20023;-77
2022/10/18 01:40:47;;;;;;;;;;;;;;;;;;5035962;28;20017;-77
2022/10/18 01:43:15;;;;;;;;;;;;;;;;;;5035952;28;19925;-77
2022/10/18 01:45:41;;;;;;;;;;;;;;;;;;5035618;28;19931;-77
2022/10/18 01:48:10;;;;;;;;;;;;;;;;;;5035948;28;20016;-77
2022/10/18 01:50:36;;;;;;;;;;;;;;;;;;5036130;28;20020;-77
2022/10/18 01:53:03;;;;;;;;;;;;;;;;;;5036168;28;19929;-77
2022/10/18 01:55:33;;;;;;;;;;;;;;;;;;5035452;28;20032;-77
2022/10/18 01:58:02;;;;;;;;;;;;;;;;;;5035503;28;20012;-77
2022/10/18 02:00:32;;;;;;;;;;;;;;;;;;5035167;28;20676;-77
2022/10/18 02:03:04;;;;;;;;;;;;;;;;;;5027685;28;20008;-77
2022/10/18 02:05:37;;;;;;;;;;;;;;;;;;5015659;28;19940;-77
2022/10/18 02:08:06;;;;;;;;;;;;;;;;;;5015802;28;20412;-77
2022/10/18 02:10:34;;;;;;;;;;;;;;;;;;5016884;28;19983;-78
2022/10/18 02:13:01;;;;;;;;;;;;;;;;;;5018504;28;20031;-77
2022/10/18 02:15:29;;;;;;;;;;;;;;;;;;5018803;28;20005;-77
2022/10/18 02:17:57;;;;;;;;;;;;;;;;;;5019372;28;20012;-78
2022/10/18 02:20:24;;;;;;;;;;;;;;;;;;5018992;28;19926;-77
2022/10/18 02:22:53;;;;;;;;;;;;;;;;;;5019081;28;19960;-77
2022/10/18 02:25:21;;;;;;;;;;;;;;;;;;5018726;28;20464;-77
2022/10/18 02:27:47;;;;;;;;;;;;;;;;;;5018568;28;19972;-77
2022/10/18 02:30:14;;;;;;;;;;;;;;;;;;5017987;28;19931;-78
2022/10/18 02:32:41;;;;;;;;;;;;;;;;;;5016725;28;19926;-77
2022/10/18 02:35:09;;;;;;;;;;;;;;;;;;5017043;28;19932;-78
2022/10/18 02:37:37;;;;;;;;;;;;;;;;;;5016852;28;20040;-75
2022/10/18 02:40:07;;;;;;;;;;;;;;;;;;5016579;28;19930;-77
2022/10/18 02:42:35;;;;;;;;;;;;;;;;;;5017419;28;20008;-77
2022/10/18 02:45:01;;;;;;;;;;;;;;;;;;5016294;28;19933;-76
2022/10/18 02:47:28;;;;;;;;;;;;;;;;;;5015159;28;19925;-76
2022/10/18 02:49:54;;;;;;;;;;;;;;;;;;5013949;28;20012;-76
2022/10/18 02:52:20;;;;;;;;;;;;;;;;;;5014426;28;20016;-78
2022/10/18 02:54:47;;;;;;;;;;;;;;;;;;5014761;28;20348;-77
2022/10/18 02:57:15;;;;;;;;;;;;;;;;;;5014484;28;19948;-76
2022/10/18 02:59:41;;;;;;;;;;;;;;;;;;5014914;28;19948;-75
2022/10/18 03:02:07;;;;;;;;;;;;;;;;;;5015094;28;19975;-76
2022/10/18 03:04:34;;;;;;;;;;;;;;;;;;5034506;28;19926;-77
2022/10/18 03:07:00;;;;;;;;;;;;;;;;;;5033795;28;20008;-76
2022/10/18 03:09:27;;;;;;;;;;;;;;;;;;5034220;28;20016;-77
2022/10/18 03:11:53;;;;;;;;;;;;;;;;;;5033936;28;20052;-76
2022/10/18 03:14:21;;;;;;;;;;;;;;;;;;5034354;28;20019;-76
2022/10/18 03:16:48;;;;;;;;;;;;;;;;;;5034206;28;19973;-78
2022/10/18 03:19:14;;;;;;;;;;;;;;;;;;5034709;28;19968;-75
2022/10/18 03:21:40;;;;;;;;;;;;;;;;;;5035407;28;19967;-77
2022/10/18 03:24:07;;;;;;;;;;;;;;;;;;5036095;28;20008;-76
2022/10/18 03:26:33;;;;;;;;;;;;;;;;;;5035302;28;19931;-76
2022/10/18 03:29:00;;;;;;;;;;;;;;;;;;5034072;28;20021;-76
2022/10/18 03:31:29;;;;;;;;;;;;;;;;;;5033498;28;19991;-76
2022/10/18 03:33:55;;;;;;;;;;;;;;;;;;5033687;28;19925;-76
2022/10/18 03:36:22;;;;;;;;;;;;;;;;;;5033609;28;20021;-76
2022/10/18 03:38:48;;;;;;;;;;;;;;;;;;5033717;28;19975;-76
2022/10/18 03:41:15;;;;;;;;;;;;;;;;;;5032992;28;20012;-76
2022/10/18 03:43:41;;;;;;;;;;;;;;;;;;5033524;28;19926;-77
2022/10/18 03:46:08;;;;;;;;;;;;;;;;;;5033409;28;20020;-76
2022/10/18 03:48:35;;;;;;;;;;;;;;;;;;5033084;28;19931;-76
2022/10/18 03:51:02;;;;;;;;;;;;;;;;;;5033256;28;20011;-76
2022/10/18 03:53:28;;;;;;;;;;;;;;;;;;5033346;28;20375;-77
2022/10/18 03:55:56;;;;;;;;;;;;;;;;;;5033697;28;20440;-77
2022/10/18 03:58:22;;;;;;;;;;;;;;;;;;5033503;28;19968;-77
2022/10/18 04:00:50;;;;;;;;;;;;;;;;;;5033014;28;20011;-77
2022/10/18 04:03:17;;;;;;;;;;;;;;;;;;5033460;28;19937;-77
2022/10/18 04:05:45;;;;;;;;;;;;;;;;;;5033728;28;19992;-76
2022/10/18 04:08:12;;;;;;;;;;;;;;;;;;5033285;28;20420;-77
2022/10/18 04:10:38;;;;;;;;;;;;;;;;;;5033681;28;19978;-76
2022/10/18 04:13:05;;;;;;;;;;;;;;;;;;5033178;28;19925;-76
2022/10/18 04:15:31;;;;;;;;;;;;;;;;;;5033352;28;20012;-77
2022/10/18 04:17:58;;;;;;;;;;;;;;;;;;5033333;28;19979;-77
2022/10/18 04:20:24;;;;;;;;;;;;;;;;;;5033547;28;20015;-77
2022/10/18 04:22:53;;;;;;;;;;;;;;;;;;5033339;28;19983;-77
2022/10/18 04:25:20;;;;;;;;;;;;;;;;;;5033134;28;19987;-76
2022/10/18 04:27:47;;;;;;;;;;;;;;;;;;5033136;28;20541;-78
2022/10/18 04:30:13;;;;;;;;;;;;;;;;;;5032651;28;19979;-77
2022/10/18 04:32:39;;;;;;;;;;;;;;;;;;5032889;28;19952;-77
2022/10/18 04:35:06;;;;;;;;;;;;;;;;;;5033097;28;20008;-77
2022/10/18 04:37:34;;;;;;;;;;;;;;;;;;5032787;28;20604;-78
2022/10/18 04:40:03;;;;;;;;;;;;;;;;;;5033224;28;19925;-77
2022/10/18 04:42:30;;;;;;;;;;;;;;;;;;5033368;28;19931;-77
2022/10/18 04:44:56;;;;;;;;;;;;;;;;;;5016665;28;20012;-77
2022/10/18 04:47:23;;;;;;;;;;;;;;;;;;5012998;28;20019;-76
2022/10/18 04:49:49;;;;;;;;;;;;;;;;;;5015428;28;19973;-76
2022/10/18 04:52:15;;;;;;;;;;;;;;;;;;5018677;28;19965;-76
2022/10/18 04:54:42;;;;;;;;;;;;;;;;;;5017957;28;19927;-77
2022/10/18 04:57:10;;;;;;;;;;;;;;;;;;5018012;28;20361;-76
2022/10/18 04:59:37;;;;;;;;;;;;;;;;;;5024800;28;20320;-77
2022/10/18 05:02:03;;;;;;;;;;;;;;;;;;5022878;28;19926;-77
2022/10/18 05:04:30;;;;;;;;;;;;;;;;;;5024424;28;19976;-77
2022/10/18 05:06:56;;;;;;;;;;;;;;;;;;5024286;28;19932;-76
2022/10/18 05:09:23;;;;;;;;;;;;;;;;;;5022666;28;19977;-77
2022/10/18 05:11:50;;;;;;;;;;;;;;;;;;5027416;28;19984;-76
2022/10/18 05:14:18;;;;;;;;;;;;;;;;;;5021817;28;19925;-77
2022/10/18 05:16:44;;;;;;;;;;;;;;;;;;5016605;28;19932;-77
2022/10/18 05:19:11;;;;;;;;;;;;;;;;;;5016432;28;19925;-77
2022/10/18 05:21:37;;;;;;;;;;;;;;;;;;5016150;28;19968;-77
2022/10/18 05:24:04;;;;;;;;;;;;;;;;;;5016259;28;20037;-77
2022/10/18 05:26:30;;;;;;;;;;;;;;;;;;5023061;28;19932;-76
2022/10/18 05:28:56;;;;;;;;;;;;;;;;;;5024597;28;19965;-79
2022/10/18 05:31:24;;;;;;;;;;;;;;;;;;5028280;28;19982;-78
2022/10/18 05:33:51;;;;;;;;;;;;;;;;;;5027648;28;19926;-77
2022/10/18 05:36:17;;;;;;;;;;;;;;;;;;5027757;28;20408;-76
2022/10/18 05:38:44;;;;;;;;;;;;;;;;;;5026868;28;19933;-77
2022/10/18 05:41:11;;;;;;;;;;;;;;;;;;5026719;28;19925;-79
2022/10/18 05:43:37;;;;;;;;;;;;;;;;;;5026255;28;19925;-77
2022/10/18 05:46:06;;;;;;;;;;;;;;;;;;5023970;28;19980;-76
2022/10/18 05:48:34;;;;;;;;;;;;;;;;;;5016303;28;20385;-78
2022/10/18 05:51:00;;;;;;;;;;;;;;;;;;5016813;28;19932;-76
2022/10/18 05:53:27;;;;;;;;;;;;;;;;;;5016525;28;20365;-77
2022/10/18 05:55:53;;;;;;;;;;;;;;;;;;5016540;28;20397;-77
2022/10/18 05:58:20;;;;;;;;;;;;;;;;;;5016057;28;20440;-76
2022/10/18 06:00:46;;;;;;;;;;;;;;;;;;5015923;28;19979;-75
2022/10/18 06:03:13;;;;;;;;;;;;;;;;;;5025437;28;19961;-76
2022/10/18 06:05:40;;;;;;;;;;;;;;;;;;5036088;28;20012;-76
2022/10/18 06:08:07;;;;;;;;;;;;;;;;;;5035053;28;19965;-77
2022/10/18 06:10:34;;;;;;;;;;;;;;;;;;5033955;28;20170;-77
2022/10/18 06:13:01;;;;;;;;;;;;;;;;;;5035845;28;19987;-78
2022/10/18 06:15:27;;;;;;;;;;;;;;;;;;5035523;28;20012;-77
2022/10/18 06:17:54;;;;;;;;;;;;;;;;;;5035591;28;20004;-77
2022/10/18 06:20:20;;;;;;;;;;;;;;;;;;5035512;28;20360;-77
2022/10/18 06:22:48;;;;;;;;;;;;;;;;;;5035594;28;20015;-77
2022/10/18 06:25:14;;;;;;;;;;;;;;;;;;5036086;28;19987;-77
2022/10/18 06:27:41;;;;;;;;;;;;;;;;;;5035529;28;20032;-77
2022/10/18 06:30:08;;;;;;;;;;;;;;;;;;5034780;28;20010;-77
2022/10/18 06:32:35;;;;;;;;;;;;;;;;;;5033444;28;19960;-77
2022/10/18 06:35:01;;;;;;;;;;;;;;;;;;5035407;28;20031;-77
2022/10/18 06:37:29;;;;;;;;;;;;;;;;;;5036172;28;20084;-77
2022/10/18 06:39:56;;;;;;;;;;;;;;;;;;5034939;28;20392;-78
2022/10/18 06:42:23;;;;;;;;;;;;;;;;;;5034733;28;20358;-77
2022/10/18 06:44:50;;;;;;;;;;;;;;;;;;5035290;28;20303;-77
2022/10/18 06:47:16;;;;;;;;;;;;;;;;;;5034926;28;19976;-77
2022/10/18 06:49:42;;;;;;;;;;;;;;;;;;5035153;28;20008;-77
2022/10/18 06:52:09;;;;;;;;;;;;;;;;;;5034721;28;20007;-77
2022/10/18 06:54:35;;;;;;;;;;;;;;;;;;5034958;28;20471;-77
2022/10/18 06:57:03;;;;;;;;;;;;;;;;;;5035032;28;19976;-78
2022/10/18 06:59:30;;;;;;;;;;;;;;;;;;5034706;28;19933;-78
2022/10/18 07:01:56;;;;;;;;;;;;;;;;;;5034751;28;19925;-77
2022/10/18 07:04:22;;;;;;;;;;;;;;;;;;5015183;28;19964;-77
2022/10/18 07:06:49;;;;;;;;;;;;;;;;;;5014713;28;19926;-77
2022/10/18 07:09:15;;;;;;;;;;;;;;;;;;5014736;28;19980;-77
2022/10/18 07:11:42;;;;;;;;;;;;;;;;;;5015102;28;20023;-77
2022/10/18 07:14:10;;;;;;;;;;;;;;;;;;5015816;28;19960;-78
2022/10/18 07:16:36;;;;;;;;;;;;;;;;;;5005837;28;19925;-77
2022/10/18 07:19:03;;;;;;;;;;;;;;;;;;5011495;28;19971;-78
2022/10/18 07:21:30;;;;;;;;;;;;;;;;;;5012288;28;19929;-77
2022/10/18 07:23:57;;;;;;;;;;;;;;;;;;5012595;28;19973;-77
2022/10/18 07:26:24;;;;;;;;;;;;;;;;;;5012037;28;20356;-77
2022/10/18 07:28:53;;;;;;;;;;;;;;;;;;5012371;28;19984;-77
2022/10/18 07:31:21;;;;;;;;;;;;;;;;;;5012451;28;20377;-77
2022/10/18 07:33:47;;;;;;;;;;;;;;;;;;5011413;28;20008;-76
2022/10/18 07:36:14;;;;;;;;;;;;;;;;;;5012074;28;19980;-77
2022/10/18 07:38:41;;;;;;;;;;;;;;;;;;5012377;28;20009;-76
2022/10/18 07:41:07;;;;;;;;;;;;;;;;;;5012206;28;19926;-77
2022/10/18 07:43:34;;;;;;;;;;;;;;;;;;5012360;28;20028;-77
2022/10/18 07:46:01;;;;;;;;;;;;;;;;;;5012184;28;19925;-77
2022/10/18 07:48:29;;;;;;;;;;;;;;;;;;5012213;28;19933;-77
2022/10/18 07:50:57;;;;;;;;;;;;;;;;;;5011913;28;19932;-77
2022/10/18 07:53:24;;;;;;;;;;;;;;;;;;5012209;28;20451;-78
2022/10/18 07:55:50;;;;;;;;;;;;;;;;;;5011633;28;20297;-77
2022/10/18 07:58:17;;;;;;;;;;;;;;;;;;5012063;28;20524;-77
2022/10/18 08:00:43;;;;;;;;;;;;;;;;;;5012006;28;20487;-77
2022/10/18 08:03:10;;;;;;;;;;;;;;;;;;5012580;28;20432;-77
2022/10/18 08:05:37;;;;;;;;;;;;;;;;;;5011904;28;20020;-78
2022/10/18 08:08:04;;;;;;;;;;;;;;;;;;5011914;28;20013;-77
2022/10/18 08:10:31;;;;;;;;;;;;;;;;;;5012549;28;19929;-77
2022/10/18 08:12:57;;;;;;;;;;;;;;;;;;5013104;28;20396;-78
2022/10/18 08:15:24;;;;;;;;;;;;;;;;;;4999848;28;20556;-78
2022/10/18 08:17:51;;;;;;;;;;;;;;;;;;4999846;28;19925;-77
2022/10/18 08:20:17;;;;;;;;;;;;;;;;;;4999511;28;20008;-78
2022/10/18 08:22:45;;;;;;;;;;;;;;;;;;4999511;28;20309;-79
2022/10/18 08:25:11;;;;;;;;;;;;;;;;;;5001543;28;19961;-77
2022/10/18 08:27:38;;;;;;;;;;;;;;;;;;5002262;28;19965;-78
2022/10/18 08:30:05;;;;;;;;;;;;;;;;;;5004286;28;19926;-78
2022/10/18 08:32:31;;;;;;;;;;;;;;;;;;5001463;28;19933;-79
2022/10/18 08:34:57;;;;;;;;;;;;;;;;;;5005044;28;19933;-79
2022/10/18 08:37:24;;;;;;;;;;;;;;;;;;5002614;28;19961;-79
2022/10/18 08:39:52;;;;;;;;;;;;;;;;;;5000356;28;19925;-77
2022/10/18 08:42:29;;;;;;;;;;;;;;;;;;5000119;28;19971;-76
2022/10/18 08:44:56;;;;;;;;;;;;;;;;;;5001483;28;20420;-77
2022/10/18 08:47:28;;;;;;;;;;;;;;;;;;4999112;28;19985;-77
2022/10/18 08:49:56;;;;;;;;;;;;;;;;;;4997090;28;20021;-78
2022/10/18 08:52:28;;;;;;;;;;;;;;;;;;4996467;28;19925;-77
2022/10/18 08:55:00;;;;;;;;;;;;;;;;;;4995613;28;19925;-77
2022/10/18 08:57:27;;;;;;;;;;;;;;;;;;4996433;28;19926;-78
2022/10/18 08:59:54;;;;;;;;;;;;;;;;;;4996440;28;20393;-77
2022/10/18 09:02:27;;;;;;;;;;;;;;;;;;5001459;28;20421;-77
2022/10/18 09:04:57;;;;;;;;;;;;;;;;;;5036291;28;20583;-78
2022/10/18 09:07:31;;;;;;;;;;;;;;;;;;5035472;28;20067;-78
2022/10/18 09:10:00;;;;;;;;;;;;;;;;;;5036083;28;19925;-78
2022/10/18 09:12:32;;;;;;;;;;;;;;;;;;5035243;28;19925;-77
2022/10/18 09:15:12;;;;;;;;;;;;;;;;;;5036520;28;19981;-77
2022/10/18 09:17:44;;;;;;;;;;;;;;;;;;5032716;28;19969;-76
2022/10/18 09:20:18;;;;;;;;;;;;;;;;;;5031702;28;20016;-76
2022/10/18 09:22:50;;;;;;;;;;;;;;;;;;5032131;28;19926;-76
2022/10/18 09:25:19;;;;;;;;;;;;;;;;;;5031196;28;19931;-77
2022/10/18 09:27:50;;;;;;;;;;;;;;;;;;5031561;28;20367;-78
2022/10/18 09:30:21;;;;;;;;;;;;;;;;;;5030932;28;19925;-77
2022/10/18 09:32:50;;;;;;;;;;;;;;;;;;5031118;28;19976;-77
2022/10/18 09:35:20;;;;;;;;;;;;;;;;;;5031015;28;20019;-77
2022/10/18 09:37:47;;;;;;;;;;;;;;;;;;5030283;28;19957;-78
2022/10/18 09:40:16;;;;;;;;;;;;;;;;;;5031870;28;20000;-75
2022/10/18 09:42:49;;;;;;;;;;;;;;;;;;5031567;28;20576;-77
2022/10/18 09:45:21;;;;;;;;;;;;;;;;;;5032469;28;19932;-78
2022/10/18 09:47:53;;;;;;;;;;;;;;;;;;5033491;28;19969;-77
2022/10/18 09:50:23;;;;;;;;;;;;;;;;;;5031004;28;20028;-77
2022/10/18 09:52:52;;;;;;;;;;;;;;;;;;5030483;28;20015;-77
2022/10/18 09:55:22;;;;;;;;;;;;;;;;;;5030470;28;20439;-76
2022/10/18 09:57:51;;;;;;;;;;;;;;;;;;5031836;28;19972;-77
2022/10/18 10:00:20;;;;;;;;;;;;;;;;;;5034580;28;19925;-77
2022/10/18 10:02:47;;;;;;;;;;;;;;;;;;5028328;28;19971;-77
2022/10/18 10:05:13;;;;;;;;;;;;;;;;;;5015595;28;19980;-77
2022/10/18 10:07:42;;;;;;;;;;;;;;;;;;5015160;28;19943;-76
2022/10/18 10:10:12;;;;;;;;;;;;;;;;;;5015968;28;20558;-77
2022/10/18 10:12:40;;;;;;;;;;;;;;;;;;5015849;28;20016;-77
2022/10/18 10:15:08;;;;;;;;;;;;;;;;;;5015444;28;19972;-77
2022/10/18 10:17:35;;;;;;;;;;;;;;;;;;5015489;28;20312;-76
2022/10/18 10:20:03;;;;;;;;;;;;;;;;;;5015747;28;20320;-77
2022/10/18 10:22:34;;;;;;;;;;;;;;;;;;5019533;28;19929;-77
2022/10/18 10:25:00;;;;;;;;;;;;;;;;;;5031060;28;19913;-77
2022/10/18 10:27:29;;;;;;;;;;;;;;;;;;5033546;28;19948;-77
2022/10/18 10:29:56;;;;;;;;;;;;;;;;;;5037077;28;19930;-77
2022/10/18 10:32:26;;;;;;;;;;;;;;;;;;5033503;28;19925;-77
2022/10/18 10:34:53;;;;;;;;;;;;;;;;;;5028438;28;19925;-78
2022/10/18 10:37:32;;;;;;;;;;;;;;;;;;5027451;28;19925;-77
2022/10/18 10:40:06;;;;;;;;;;;;;;;;;;5028710;28;19925;-77
2022/10/18 10:42:33;;;;;;;;;;;;;;;;;;5034937;28;19932;-79
2022/10/18 10:45:01;;;;;;;;;;;;;;;;;;5031901;28;19925;-78
2022/10/18 10:47:31;;;;;;;;;;;;;;;;;;5035814;28;19909;-77
2022/10/18 10:49:58;;;;;;;;;;;;;;;;;;5034778;28;19933;-78
2022/10/18 10:52:28;;;;;;;;;;;;;;;;;;5029177;28;19965;-78
2022/10/18 10:54:56;;;;;;;;;;;;;;;;;;5033092;28;19926;-79
2022/10/18 10:57:23;;;;;;;;;;;;;;;;;;5024085;28;19937;-78
2022/10/18 10:59:51;;;;;;;;;;;;;;;;;;5024437;28;19972;-78
2022/10/18 11:02:20;;;;;;;;;;;;;;;;;;5025358;28;20016;-78
2022/10/18 11:04:49;;;;;;;;;;;;;;;;;;5027134;28;19952;-78
2022/10/18 11:07:20;;;;;;;;;;;;;;;;;;5026534;28;20468;-79
2022/10/18 11:09:54;;;;;;;;;;;;;;;;;;5025403;28;19927;-78
2022/10/18 11:12:34;;;;;;;;;;;;;;;;;;5023603;28;19926;-80
2022/10/18 11:15:08;;;;;;;;;;;;;;;;;;5017001;28;19957;-77
2022/10/18 11:17:39;;;;;;;;;;;;;;;;;;5015258;28;20385;-78
2022/10/18 11:20:13;;;;;;;;;;;;;;;;;;5018502;28;20392;-76
2022/10/18 11:22:42;;;;;;;;;;;;;;;;;;5014234;28;19925;-81
2022/10/18 11:25:10;;;;;;;;;;;;;;;;;;5016006;28;19932;-76
2022/10/18 11:27:40;;;;;;;;;;;;;;;;;;5011138;28;19968;-78
2022/10/18 11:30:16;;;;;;;;;;;;;;;;;;5014852;28;19984;-78
2022/10/18 11:32:47;;;;;;;;;;;;;;;;;;5012615;28;19929;-78
2022/10/18 11:35:23;;;;;;;;;;;;;;;;;;5013288;28;20004;-78
2022/10/18 11:37:56;;;;;;;;;;;;;;;;;;5012690;28;19926;-78
2022/10/18 11:40:31;;;;;;;;;;;;;;;;;;5011352;28;19975;-77
2022/10/18 11:43:02;;;;;;;;;;;;;;;;;;5012429;28;19968;-77
2022/10/18 11:45:34;;;;;;;;;;;;;;;;;;5012280;28;20004;-78
2022/10/18 11:48:05;;;;;;;;;;;;;;;;;;5013011;28;20024;-77
2022/10/18 11:50:36;;;;;;;;;;;;;;;;;;5012745;28;20436;-76
2022/10/18 11:53:08;;;;;;;;;;;;;;;;;;5012531;28;19925;-76
2022/10/18 11:55:43;;;;;;;;;;;;;;;;;;5012705;28;19973;-77
2022/10/18 11:58:17;;;;;;;;;;;;;;;;;;5012047;28;19971;-78
2022/10/18 12:00:47;;;;;;;;;;;;;;;;;;5012266;28;19979;-76
2022/10/18 12:03:22;;;;;;;;;;;;;;;;;;5011658;28;19925;-77
2022/10/18 12:05:50;;;;;;;;;;;;;;;;;;5012119;28;20020;-78
2022/10/18 12:08:19;;;;;;;;;;;;;;;;;;5011361;28;19968;-77
2022/10/18 12:10:48;;;;;;;;;;;;;;;;;;5011973;28;20012;-77
2022/10/18 12:13:17;;;;;;;;;;;;;;;;;;5011677;28;20020;-76
2022/10/18 12:15:43;;;;;;;;;;;;;;;;;;5011917;28;19925;-77
2022/10/18 12:18:11;;;;;;;;;;;;;;;;;;5011358;28;19926;-76
2022/10/18 12:20:40;;;;;;;;;;;;;;;;;;5011242;28;20012;-77
2022/10/18 12:23:11;;;;;;;;;;;;;;;;;;5011354;28;20016;-77
2022/10/18 12:25:40;;;;;;;;;;;;;;;;;;5011240;28;20419;-77
2022/10/18 12:28:09;;;;;;;;;;;;;;;;;;5011412;28;19979;-78
2022/10/18 12:30:41;;;;;;;;;;;;;;;;;;5011103;28;20020;-78
2022/10/18 12:33:09;;;;;;;;;;;;;;;;;;5010819;28;20020;-78
2022/10/18 12:35:42;;;;;;;;;;;;;;;;;;5011463;28;20021;-78
2022/10/18 12:38:16;;;;;;;;;;;;;;;;;;5011312;28;19969;-78
2022/10/18 12:40:43;;;;;;;;;;;;;;;;;;5011224;28;20025;-77
2022/10/18 12:43:16;;;;;;;;;;;;;;;;;;5011092;28;20001;-77
2022/10/18 12:45:51;;;;;;;;;;;;;;;;;;5010917;28;20435;-77
2022/10/18 12:48:31;;;;;;;;;;;;;;;;;;5010710;28;19964;-77
2022/10/18 12:50:59;;;;;;;;;;;;;;;;;;5011217;28;19973;-78
2022/10/18 12:53:27;;;;;;;;;;;;;;;;;;5011067;28;19936;-78
2022/10/18 12:55:54;;;;;;;;;;;;;;;;;;5011045;28;19965;-77
2022/10/18 12:58:25;;;;;;;;;;;;;;;;;;5010831;28;19932;-77
2022/10/18 13:00:56;;;;;;;;;;;;;;;;;;5010705;28;19961;-78
2022/10/18 13:03:29;;;;;;;;;;;;;;;;;;5021870;28;20016;-77
2022/10/18 13:05:57;;;;;;;;;;;;;;;;;;5030219;28;20324;-78
2022/10/18 13:08:38;;;;;;;;;;;;;;;;;;5030739;28;19925;-77
2022/10/18 13:11:24;;;;;;;;;;;;;;;;;;5030192;28;19925;-78
2022/10/18 13:14:02;;;;;;;;;;;;;;;;;;5030633;28;20224;-77
2022/10/18 13:16:32;;;;;;;;;;;;;;;;;;5017173;28;20467;-77
2022/10/18 13:19:00;;;;;;;;;;;;;;;;;;5010717;28;19926;-78
2022/10/18 13:21:41;;;;;;;;;;;;;;;;;;5010353;28;20020;-78
2022/10/18 13:24:17;;;;;;;;;;;;;;;;;;5010950;28;19925;-78
2022/10/18 13:26:47;;;;;;;;;;;;;;;;;;5011363;28;19925;-78
2022/10/18 13:29:29;;;;;;;;;;;;;;;;;;5010684;28;19925;-78
2022/10/18 13:32:00;;;;;;;;;;;;;;;;;;5011200;28;19968;-78
2022/10/18 13:34:28;;;;;;;;;;;;;;;;;;5014269;28;20332;-78
2022/10/18 13:36:58;;;;;;;;;;;;;;;;;;5014515;28;19925;-78
2022/10/18 13:39:26;;;;;;;;;;;;;;;;;;5014466;28;20397;-77
2022/10/18 13:42:12;;;;;;;;;;;;;;;;;;5014533;28;20025;-77
2022/10/18 13:44:39;;;;;;;;;;;;;;;;;;5016114;28;19973;-77
2022/10/18 13:47:09;;;;;;;;;;;;;;;;;;5016991;28;19929;-78
2022/10/18 13:49:39;;;;;;;;;;;;;;;;;;5016779;28;20020;-77
2022/10/18 13:52:10;;;;;;;;;;;;;;;;;;5018450;28;19976;-78
2022/10/18 13:54:45;;;;;;;;;;;;;;;;;;5016898;28;20012;-78
2022/10/18 13:57:17;;;;;;;;;;;;;;;;;;5017769;28;19929;-77
2022/10/18 13:59:53;;;;;;;;;;;;;;;;;;5018176;28;19933;-77
2022/10/18 14:02:34;;;;;;;;;;;;;;;;;;5020566;28;19968;-77
2022/10/18 14:05:22;;;;;;;;;;;;;;;;;;5034109;28;20084;-78
2022/10/18 14:07:49;;;;;;;;;;;;;;;;;;5009808;28;19993;-77
2022/10/18 14:10:22;;;;;;;;;;;;;;;;;;5036282;28;20010;-77
2022/10/18 14:12:53;;;;;;;;;;;;;;;;;;5035454;28;20012;-78
2022/10/18 14:15:23;;;;;;;;;;;;;;;;;;5043321;28;19932;-77
2022/10/18 14:17:51;;;;;;;;;;;;;;;;;;5043133;28;20025;-77
2022/10/18 14:20:20;;;;;;;;;;;;;;;;;;5042805;28;19951;-77
2022/10/18 14:22:49;;;;;;;;;;;;;;;;;;5041875;28;19972;-78
2022/10/18 14:25:22;;;;;;;;;;;;;;;;;;5042859;28;19979;-78
2022/10/18 14:27:48;;;;;;;;;;;;;;;;;;5040341;28;20055;-78
2022/10/18 14:30:16;;;;;;;;;;;;;;;;;;5033770;28;20396;-77
2022/10/18 14:32:45;;;;;;;;;;;;;;;;;;5033769;28;19979;-78
2022/10/18 14:35:18;;;;;;;;;;;;;;;;;;5033851;28;19925;-78
2022/10/18 14:37:46;;;;;;;;;;;;;;;;;;5033124;28;19995;-78
2022/10/18 14:40:27;;;;;;;;;;;;;;;;;;5033376;28;19987;-77
2022/10/18 14:42:53;;;;;;;;;;;;;;;;;;5033103;28;19929;-77
2022/10/18 14:45:20;;;;;;;;;;;;;;;;;;5032656;28;20011;-77
2022/10/18 14:47:47;;;;;;;;;;;;;;;;;;5033150;28;20527;-78
2022/10/18 14:50:20;;;;;;;;;;;;;;;;;;5032917;28;20412;-77
2022/10/18 14:52:47;;;;;;;;;;;;;;;;;;5032637;28;20348;-77
2022/10/18 14:55:15;;;;;;;;;;;;;;;;;;5032871;28;19949;-78
2022/10/18 14:57:43;;;;;;;;;;;;;;;;;;5032502;28;20098;-78
2022/10/18 15:00:18;;;;;;;;;;;;;;;;;;5033093;28;19925;-77
2022/10/18 15:02:45;;;;;;;;;;;;;;;;;;5026673;28;19926;-78
2022/10/18 15:05:19;;;;;;;;;;;;;;;;;;5012468;28;19991;-78
2022/10/18 15:07:46;;;;;;;;;;;;;;;;;;5012531;28;19932;-77
2022/10/18 15:10:15;;;;;;;;;;;;;;;;;;5012893;28;19925;-77
2022/10/18 15:12:44;;;;;;;;;;;;;;;;;;5012672;28;19972;-77
2022/10/18 15:15:16;;;;;;;;;;;;;;;;;;5012835;28;19972;-77
2022/10/18 15:17:43;;;;;;;;;;;;;;;;;;5012258;28;20349;-75
2022/10/18 15:20:19;;;;;;;;;;;;;;;;;;5012606;28;20591;-77
2022/10/18 15:22:46;;;;;;;;;;;;;;;;;;5012370;28;20368;-78
2022/10/18 15:25:14;;;;;;;;;;;;;;;;;;5012761;28;19925;-77
2022/10/18 15:27:43;;;;;;;;;;;;;;;;;;5012144;28;19926;-77
2022/10/18 15:30:15;;;;;;;;;;;;;;;;;;5012186;28;19932;-77
2022/10/18 15:32:47;;;;;;;;;;;;;;;;;;5011975;28;19961;-78
2022/10/18 15:35:16;;;;;;;;;;;;;;;;;;5012075;28;20012;-78
2022/10/18 15:37:43;;;;;;;;;;;;;;;;;;5011929;28;20064;-77
2022/10/18 15:40:28;;;;;;;;;;;;;;;;;;5011201;28;19988;-77
2022/10/18 15:42:57;;;;;;;;;;;;;;;;;;5012020;28;20392;-76
2022/10/18 15:45:30;;;;;;;;;;;;;;;;;;5012083;28;19944;-77
2022/10/18 15:48:01;;;;;;;;;;;;;;;;;;5011149;28;20040;-76
2022/10/18 15:50:37;;;;;;;;;;;;;;;;;;5011692;28;20604;-76
2022/10/18 15:53:23;;;;;;;;;;;;;;;;;;5011634;28;20044;-77
2022/10/18 15:55:51;;;;;;;;;;;;;;;;;;5011773;28;19965;-76
2022/10/18 15:58:21;;;;;;;;;;;;;;;;;;5011469;28;20003;-76
2022/10/18 16:00:48;;;;;;;;;;;;;;;;;;5012563;28;19949;-76
2022/10/18 16:03:15;;;;;;;;;;;;;;;;;;5013829;28;19929;-78
2022/10/18 16:05:41;;;;;;;;;;;;;;;;;;5012496;28;19932;-76
2022/10/18 16:08:18;;;;;;;;;;;;;;;;;;5012715;28;19988;-79
2022/10/18 16:10:44;;;;;;;;;;;;;;;;;;5013653;28;19953;-75
2022/10/18 16:13:11;;;;;;;;;;;;;;;;;;5013502;28;19925;-76
2022/10/18 16:15:39;;;;;;;;;;;;;;;;;;5016065;28;19933;-76
2022/10/18 16:18:05;;;;;;;;;;;;;;;;;;5012411;28;20024;-77
2022/10/18 16:20:32;;;;;;;;;;;;;;;;;;5019360;28;20024;-77
2022/10/18 16:22:58;;;;;;;;;;;;;;;;;;5020554;28;19965;-76
2022/10/18 16:25:25;;;;;;;;;;;;;;;;;;5019945;28;19975;-75
2022/10/18 16:27:51;;;;;;;;;;;;;;;;;;5020329;28;20370;-78
2022/10/18 16:30:19;;;;;;;;;;;;;;;;;;5019328;28;20385;-77
2022/10/18 16:32:48;;;;;;;;;;;;;;;;;;5013653;28;19925;-76
2022/10/18 16:35:14;;;;;;;;;;;;;;;;;;5012033;28;19937;-77
2022/10/18 16:37:42;;;;;;;;;;;;;;;;;;5011730;28;20343;-77
2022/10/18 16:40:18;;;;;;;;;;;;;;;;;;5012063;28;19949;-77
2022/10/18 16:42:44;;;;;;;;;;;;;;;;;;5011035;28;19929;-77
2022/10/18 16:45:11;;;;;;;;;;;;;;;;;;5011267;28;19925;-77
2022/10/18 16:47:37;;;;;;;;;;;;;;;;;;5010880;28;19961;-77
2022/10/18 16:50:07;;;;;;;;;;;;;;;;;;5011065;28;20454;-77
2022/10/18 16:52:33;;;;;;;;;;;;;;;;;;5010917;28;20479;-77
2022/10/18 16:55:00;;;;;;;;;;;;;;;;;;5011101;28;20300;-77
2022/10/18 16:57:26;;;;;;;;;;;;;;;;;;5010908;28;20378;-77